Time;durP1;ratioP1;P1;durP2;ratioP2;P2;SDS_P1;SDS_P2;PMS_P1;PMS_P2;Temp;Humidity;BMP_temperature;BMP_pressure;BME280_temperature;BME280_humidity;BME280_pressure;Samples;Min_cycle;Max_cycle;Signal;HPM_P1;HPM_P2
2023/05/22 00:00:20;;;;;;;;;;;18.70;99.90;;;;;;5015007;28;19968;-75
2023/05/22 00:02:49;;;;;;;;;;;18.70;99.90;;;;;;5022460;28;20319;-74
2023/05/22 00:05:17;;;;;;;;;;;18.60;99.90;;;;;;5021939;28;20024;-74
2023/05/22 00:07:44;;;;;;;;;;;18.60;99.90;;;;;;5014161;28;19956;-74
2023/05/22 00:10:12;;;;;;;;;;;18.60;99.90;;;;;;5029240;28;19925;-74
2023/05/22 00:12:39;;;;;;;;;;;18.60;99.90;;;;;;5019835;28;20399;-74
2023/05/22 00:15:08;;;;;;;;;;;18.60;99.90;;;;;;5021285;28;20483;-74
2023/05/22 00:17:35;;;;;;;;;;;18.50;99.90;;;;;;5031937;28;20425;-75
2023/05/22 00:20:03;;;;;;;;;;;18.50;99.90;;;;;;5022012;28;20383;-74
2023/05/22 00:22:34;;;;;;;;;;;18.50;99.90;;;;;;5020656;28;19925;-74
2023/05/22 00:25:01;;;;;;;;;;;18.50;99.90;;;;;;5023027;28;19991;-74
2023/05/22 00:27:29;;;;;;;;;;;18.50;99.90;;;;;;5035282;28;19936;-75
2023/05/22 00:29:56;;;;;;;;;;;18.40;99.90;;;;;;5020932;28;20023;-74
2023/05/22 00:32:25;;;;;;;;;;;18.40;99.90;;;;;;5031803;28;20501;-74
2023/05/22 00:34:52;;;;;;;;;;;18.40;99.90;;;;;;5018278;28;19926;-74
2023/05/22 00:37:19;;;;;;;;;;;18.40;99.90;;;;;;5019698;28;20371;-75
2023/05/22 00:39:46;;;;;;;;;;;18.30;99.90;;;;;;5025301;28;19935;-74
2023/05/22 00:42:13;;;;;;;;;;;18.30;99.90;;;;;;5016233;28;19964;-74
2023/05/22 00:44:41;;;;;;;;;;;18.30;99.90;;;;;;5023453;28;20343;-73
2023/05/22 00:47:08;;;;;;;;;;;18.30;99.90;;;;;;5023640;28;19929;-74
2023/05/22 00:49:36;;;;;;;;;;;18.30;99.90;;;;;;5019291;28;20004;-73
2023/05/22 00:52:03;;;;;;;;;;;18.20;99.90;;;;;;5018904;28;20399;-74
2023/05/22 00:54:31;;;;;;;;;;;18.30;99.90;;;;;;5017842;28;19979;-74
2023/05/22 00:56:59;;;;;;;;;;;18.20;99.90;;;;;;5033939;28;20032;-74
2023/05/22 00:59:27;;;;;;;;;;;18.20;99.90;;;;;;5015924;28;19983;-75
2023/05/22 01:01:54;;;;;;;;;;;18.20;99.90;;;;;;5029796;28;19925;-75
2023/05/22 01:04:21;;;;;;;;;;;18.10;99.90;;;;;;5034901;28;20085;-74
2023/05/22 01:06:52;;;;;;;;;;;18.10;99.90;;;;;;5020511;28;19932;-74
2023/05/22 01:09:19;;;;;;;;;;;18.10;99.90;;;;;;5019897;28;19972;-74
2023/05/22 01:11:51;;;;;;;;;;;18.10;99.90;;;;;;5017195;28;19939;-74
2023/05/22 01:14:30;;;;;;;;;;;18.00;99.90;;;;;;5023824;28;19929;-74
2023/05/22 01:17:01;;;;;;;;;;;18.00;99.90;;;;;;5037792;28;19930;-75
2023/05/22 01:19:38;;;;;;;;;;;18.00;99.90;;;;;;5023342;28;19925;-74
2023/05/22 01:22:13;;;;;;;;;;;18.00;99.90;;;;;;5021797;28;20414;-74
2023/05/22 01:24:55;;;;;;;;;;;17.90;99.90;;;;;;5039820;28;20390;-75
2023/05/22 01:27:33;;;;;;;;;;;17.90;99.90;;;;;;5038695;28;20471;-74
2023/05/22 01:30:08;;;;;;;;;;;17.90;99.90;;;;;;5026437;28;20375;-74
2023/05/22 01:32:38;;;;;;;;;;;17.90;99.90;;;;;;5021895;28;19929;-74
2023/05/22 01:35:10;;;;;;;;;;;17.90;99.90;;;;;;5040041;28;19925;-74
2023/05/22 01:37:38;;;;;;;;;;;17.80;99.90;;;;;;5019889;28;19929;-75
2023/05/22 01:40:06;;;;;;;;;;;17.80;99.90;;;;;;5023642;28;20000;-74
2023/05/22 01:42:33;;;;;;;;;;;17.80;99.90;;;;;;5023520;28;20395;-74
2023/05/22 01:45:01;;;;;;;;;;;17.70;99.90;;;;;;5017604;28;19925;-74
2023/05/22 01:47:28;;;;;;;;;;;17.70;99.90;;;;;;5014423;28;19929;-74
2023/05/22 01:49:55;;;;;;;;;;;;;;;;;;5016973;28;19925;-75
2023/05/22 01:52:33;;;;;;;;;;;17.60;99.90;;;;;;5019250;28;19937;-75
2023/05/22 01:55:04;;;;;;;;;;;17.60;99.90;;;;;;5036477;28;19977;-75
2023/05/22 01:57:35;;;;;;;;;;;17.60;99.90;;;;;;5022729;28;19998;-74
2023/05/22 02:00:08;;;;;;;;;;;17.70;99.90;;;;;;5022549;28;19933;-74
2023/05/22 02:02:44;;;;;;;;;;;17.60;99.90;;;;;;5024839;28;19925;-74
2023/05/22 02:05:12;;;;;;;;;;;17.50;99.90;;;;;;5031110;28;19980;-74
2023/05/22 02:07:42;;;;;;;;;;;17.50;99.90;;;;;;5022147;28;19929;-75
2023/05/22 02:10:11;;;;;;;;;;;17.50;99.90;;;;;;5035585;28;20334;-75
2023/05/22 02:12:38;;;;;;;;;;;17.40;99.90;;;;;;5034239;28;20001;-74
2023/05/22 02:15:07;;;;;;;;;;;17.40;99.90;;;;;;5024530;28;19925;-74
2023/05/22 02:17:39;;;;;;;;;;;17.40;99.90;;;;;;5025992;28;19926;-74
2023/05/22 02:20:12;;;;;;;;;;;17.30;99.90;;;;;;5035568;28;20968;-74
2023/05/22 02:22:43;;;;;;;;;;;17.30;99.90;;;;;;5020187;28;19925;-74
2023/05/22 02:25:13;;;;;;;;;;;17.30;99.90;;;;;;5023757;28;19968;-74
2023/05/22 02:27:41;;;;;;;;;;;17.30;99.90;;;;;;5021569;28;19932;-75
2023/05/22 02:30:10;;;;;;;;;;;17.20;99.90;;;;;;5020220;28;19928;-74
2023/05/22 02:32:37;;;;;;;;;;;17.20;99.90;;;;;;5037136;28;20140;-74
2023/05/22 02:35:04;;;;;;;;;;;17.20;99.90;;;;;;5022773;28;20362;-75
2023/05/22 02:37:31;;;;;;;;;;;17.20;99.90;;;;;;5020893;28;20031;-74
2023/05/22 02:40:03;;;;;;;;;;;17.20;99.90;;;;;;5026855;28;19937;-74
2023/05/22 02:42:30;;;;;;;;;;;17.20;99.90;;;;;;5022511;28;19937;-75
2023/05/22 02:45:00;;;;;;;;;;;17.10;99.90;;;;;;5024548;28;19953;-74
2023/05/22 02:47:27;;;;;;;;;;;17.10;99.90;;;;;;5020230;28;19929;-74
2023/05/22 02:49:53;;;;;;;;;;;17.10;99.90;;;;;;5020587;28;19925;-75
2023/05/22 02:52:21;;;;;;;;;;;17.10;99.90;;;;;;5019891;28;19933;-75
2023/05/22 02:54:49;;;;;;;;;;;17.10;99.90;;;;;;5019726;28;19933;-73
2023/05/22 02:57:18;;;;;;;;;;;17.10;99.90;;;;;;5020980;28;20019;-75
2023/05/22 02:59:45;;;;;;;;;;;17.00;99.90;;;;;;5020891;28;20340;-73
2023/05/22 03:02:14;;;;;;;;;;;17.00;99.90;;;;;;5024829;28;19937;-74
2023/05/22 03:04:41;;;;;;;;;;;17.00;99.90;;;;;;5034287;28;19925;-75
2023/05/22 03:07:11;;;;;;;;;;;17.00;99.90;;;;;;5025336;28;19935;-74
2023/05/22 03:09:38;;;;;;;;;;;17.00;99.90;;;;;;5044750;28;19929;-75
2023/05/22 03:12:06;;;;;;;;;;;17.00;99.90;;;;;;5024937;28;19925;-73
2023/05/22 03:14:33;;;;;;;;;;;;;;;;;;5026783;28;19932;-75
2023/05/22 03:17:03;;;;;;;;;;;16.90;99.90;;;;;;5044309;28;19936;-74
2023/05/22 03:19:30;;;;;;;;;;;16.90;99.90;;;;;;5026907;28;20292;-75
2023/05/22 03:21:57;;;;;;;;;;;16.90;99.90;;;;;;5027290;28;19925;-75
2023/05/22 03:24:25;;;;;;;;;;;16.80;99.90;;;;;;5021543;28;19971;-74
2023/05/22 03:26:52;;;;;;;;;;;16.90;99.90;;;;;;5029201;28;19925;-74
2023/05/22 03:29:27;;;;;;;;;;;16.80;99.90;;;;;;5026189;28;19931;-74
2023/05/22 03:31:54;;;;;;;;;;;16.80;99.90;;;;;;5024149;28;19931;-74
2023/05/22 03:34:26;;;;;;;;;;;16.80;99.90;;;;;;5022763;28;20027;-74
2023/05/22 03:36:53;;;;;;;;;;;16.70;99.90;;;;;;5023058;28;19975;-74
2023/05/22 03:39:22;;;;;;;;;;;16.70;99.90;;;;;;5019579;28;19925;-75
2023/05/22 03:41:59;;;;;;;;;;;16.70;99.90;;;;;;5015693;28;19933;-74
2023/05/22 03:44:27;;;;;;;;;;;16.70;99.90;;;;;;5021433;28;20406;-74
2023/05/22 03:46:54;;;;;;;;;;;16.70;99.90;;;;;;5024383;28;19929;-74
2023/05/22 03:49:23;;;;;;;;;;;16.70;99.90;;;;;;5027748;28;19933;-74
2023/05/22 03:51:49;;;;;;;;;;;16.60;99.90;;;;;;5019439;28;20624;-74
2023/05/22 03:54:16;;;;;;;;;;;16.60;99.90;;;;;;5018064;28;20810;-75
2023/05/22 03:56:46;;;;;;;;;;;16.60;99.90;;;;;;5012061;28;19929;-75
2023/05/22 03:59:13;;;;;;;;;;;16.60;99.90;;;;;;5007611;28;19931;-74
2023/05/22 04:01:41;;;;;;;;;;;16.60;99.90;;;;;;5032153;28;20007;-75
2023/05/22 04:04:10;;;;;;;;;;;16.50;99.90;;;;;;5014317;28;19925;-75
2023/05/22 04:06:41;;;;;;;;;;;16.50;99.90;;;;;;5021241;28;19933;-75
2023/05/22 04:09:11;;;;;;;;;;;16.50;99.90;;;;;;5016832;28;19986;-74
2023/05/22 04:11:40;;;;;;;;;;;16.50;99.90;;;;;;5020280;28;19929;-75
2023/05/22 04:14:08;;;;;;;;;;;16.50;99.90;;;;;;5037215;28;19931;-76
2023/05/22 04:16:35;;;;;;;;;;;16.40;99.90;;;;;;5017453;28;20018;-75
2023/05/22 04:19:02;;;;;;;;;;;16.40;99.90;;;;;;5015617;28;19931;-75
2023/05/22 04:21:32;;;;;;;;;;;16.40;99.90;;;;;;5026901;28;20027;-75
2023/05/22 04:24:01;;;;;;;;;;;16.40;99.90;;;;;;5043376;28;19991;-75
2023/05/22 04:26:37;;;;;;;;;;;16.40;99.90;;;;;;5019973;28;19925;-75
2023/05/22 04:29:09;;;;;;;;;;;16.40;99.90;;;;;;5035726;28;20139;-74
2023/05/22 04:31:36;;;;;;;;;;;16.40;99.90;;;;;;5022366;28;19933;-75
2023/05/22 04:34:04;;;;;;;;;;;16.40;99.90;;;;;;5020746;28;19987;-76
2023/05/22 04:36:32;;;;;;;;;;;16.40;99.90;;;;;;5019859;28;19935;-76
2023/05/22 04:39:01;;;;;;;;;;;16.30;99.90;;;;;;5020146;28;19991;-75
2023/05/22 04:41:28;;;;;;;;;;;16.30;99.90;;;;;;5024218;28;19968;-75
2023/05/22 04:43:55;;;;;;;;;;;16.30;99.90;;;;;;5023672;28;20015;-76
2023/05/22 04:46:22;;;;;;;;;;;16.30;99.90;;;;;;5019414;28;20410;-76
2023/05/22 04:48:49;;;;;;;;;;;16.30;99.90;;;;;;5024141;28;19925;-76
2023/05/22 04:51:16;;;;;;;;;;;16.20;99.90;;;;;;5023804;28;19932;-76
2023/05/22 04:53:44;;;;;;;;;;;16.20;99.90;;;;;;5024316;28;20003;-78
2023/05/22 04:56:13;;;;;;;;;;;16.20;99.90;;;;;;5037514;28;19925;-75
2023/05/22 04:58:40;;;;;;;;;;;16.20;99.90;;;;;;5026679;28;19936;-75
2023/05/22 05:01:08;;;;;;;;;;;16.20;99.90;;;;;;5043286;28;19933;-74
2023/05/22 05:03:35;;;;;;;;;;;16.20;99.90;;;;;;5026444;28;19929;-75
2023/05/22 05:06:01;;;;;;;;;;;16.20;99.90;;;;;;5025765;28;20055;-75
2023/05/22 05:08:28;;;;;;;;;;;16.10;99.90;;;;;;5030625;28;19925;-75
2023/05/22 05:10:55;;;;;;;;;;;16.10;99.90;;;;;;5031756;28;19929;-75
2023/05/22 05:13:24;;;;;;;;;;;16.10;99.90;;;;;;5030023;28;20108;-75
2023/05/22 05:15:51;;;;;;;;;;;16.10;99.90;;;;;;5031029;28;19929;-75
2023/05/22 05:18:19;;;;;;;;;;;16.10;99.90;;;;;;5028932;28;19998;-76
2023/05/22 05:20:45;;;;;;;;;;;16.10;99.90;;;;;;5026275;28;20465;-75
2023/05/22 05:23:14;;;;;;;;;;;16.10;99.90;;;;;;5044151;28;20030;-75
2023/05/22 05:25:41;;;;;;;;;;;16.10;99.90;;;;;;5028921;28;20415;-75
2023/05/22 05:28:10;;;;;;;;;;;16.10;99.90;;;;;;5026556;28;20402;-74
2023/05/22 05:30:39;;;;;;;;;;;16.00;99.90;;;;;;5025985;28;19968;-76
2023/05/22 05:33:29;;;;;;;;;;;16.00;99.90;;;;;;5024170;28;20026;-73
2023/05/22 05:36:10;;;;;;;;;;;16.00;99.90;;;;;;5043348;28;20098;-75
2023/05/22 05:38:36;;;;;;;;;;;16.00;99.90;;;;;;5050735;28;20447;-75
2023/05/22 05:41:04;;;;;;;;;;;16.00;99.90;;;;;;5031286;28;19965;-75
2023/05/22 05:43:32;;;;;;;;;;;16.00;99.90;;;;;;5034083;28;19971;-75
2023/05/22 05:46:06;;;;;;;;;;;16.00;99.90;;;;;;5024101;28;19948;-75
2023/05/22 05:48:33;;;;;;;;;;;16.00;99.90;;;;;;5041935;28;19925;-75
2023/05/22 05:51:00;;;;;;;;;;;16.00;99.90;;;;;;5031215;28;20015;-75
2023/05/22 05:53:31;;;;;;;;;;;15.90;99.90;;;;;;5041146;28;19955;-75
2023/05/22 05:55:59;;;;;;;;;;;16.00;99.90;;;;;;5031279;28;19939;-75
2023/05/22 05:58:27;;;;;;;;;;;16.00;99.90;;;;;;5043708;28;19932;-75
2023/05/22 06:01:23;;;;;;;;;;;15.90;99.90;;;;;;5025157;28;19932;-75
2023/05/22 06:03:50;;;;;;;;;;;16.00;99.90;;;;;;5030732;28;19933;-75
2023/05/22 06:06:25;;;;;;;;;;;16.00;99.90;;;;;;5020842;28;20338;-75
2023/05/22 06:09:27;;;;;;;;;;;15.90;99.90;;;;;;5013023;28;20387;-75
2023/05/22 06:14:55;;;;;;;;;;;16.00;99.90;;;;;;5030291;28;19932;-75
2023/05/22 06:17:23;;;;;;;;;;;16.00;99.90;;;;;;5027982;28;19932;-75
2023/05/22 06:19:50;;;;;;;;;;;16.00;99.90;;;;;;5040386;28;19975;-75
2023/05/22 06:22:17;;;;;;;;;;;16.00;99.90;;;;;;5025103;28;20031;-75
2023/05/22 06:24:47;;;;;;;;;;;16.00;99.90;;;;;;5042580;28;20422;-75
2023/05/22 06:27:19;;;;;;;;;;;16.00;99.90;;;;;;5040634;28;19925;-75
2023/05/22 06:29:46;;;;;;;;;;;16.00;99.90;;;;;;5027354;28;19956;-76
2023/05/22 06:32:13;;;;;;;;;;;16.00;99.90;;;;;;5026004;28;19971;-75
2023/05/22 06:34:44;;;;;;;;;;;16.00;99.90;;;;;;5031975;28;19925;-75
2023/05/22 06:37:15;;;;;;;;;;;16.10;99.90;;;;;;5040164;28;19925;-75
2023/05/22 06:39:44;;;;;;;;;;;16.10;99.90;;;;;;5039948;28;20391;-76
2023/05/22 06:42:25;;;;;;;;;;;16.10;99.90;;;;;;5024750;28;19928;-75
2023/05/22 06:45:21;;;;;;;;;;;16.10;99.90;;;;;;4961242;28;19927;-75
2023/05/22 06:48:04;;;;;;;;;;;16.10;99.90;;;;;;5026131;28;20636;-75
2023/05/22 06:50:37;;;;;;;;;;;16.20;99.90;;;;;;5038938;28;20938;-75
2023/05/22 06:53:04;;;;;;;;;;;16.20;99.90;;;;;;5025638;28;19932;-76
2023/05/22 06:55:30;;;;;;;;;;;16.20;99.90;;;;;;5026718;28;19925;-76
2023/05/22 06:58:05;;;;;;;;;;;16.20;99.90;;;;;;5034962;28;19932;-75
2023/05/22 07:00:34;;;;;;;;;;;16.20;99.90;;;;;;5019759;28;20019;-75
2023/05/22 07:03:10;;;;;;;;;;;16.20;99.90;;;;;;5024325;28;19933;-75
2023/05/22 07:05:58;;;;;;;;;;;16.20;99.90;;;;;;5026189;28;19932;-75
2023/05/22 07:08:25;;;;;;;;;;;16.30;99.90;;;;;;5026061;28;19929;-76
2023/05/22 07:10:52;;;;;;;;;;;16.30;99.90;;;;;;5023696;28;19935;-75
2023/05/22 07:13:18;;;;;;;;;;;16.30;99.90;;;;;;5041393;28;19955;-75
2023/05/22 07:15:46;;;;;;;;;;;16.30;99.90;;;;;;5040469;28;19956;-76
2023/05/22 07:18:14;;;;;;;;;;;16.30;99.90;;;;;;5041329;28;19930;-75
2023/05/22 07:20:41;;;;;;;;;;;16.40;99.90;;;;;;5041897;28;19925;-76
2023/05/22 07:23:16;;;;;;;;;;;16.40;99.90;;;;;;5034728;28;19933;-76
2023/05/22 07:25:43;;;;;;;;;;;16.40;99.90;;;;;;5027617;28;19940;-75
2023/05/22 07:28:12;;;;;;;;;;;16.40;99.90;;;;;;5027041;28;19929;-75
2023/05/22 07:30:50;;;;;;;;;;;16.50;99.90;;;;;;5034479;28;19929;-75
2023/05/22 07:33:18;;;;;;;;;;;16.50;99.90;;;;;;5025147;28;19932;-75
2023/05/22 07:35:45;;;;;;;;;;;16.60;99.90;;;;;;5039254;28;19936;-75
2023/05/22 07:38:12;;;;;;;;;;;16.60;99.90;;;;;;5038393;28;22090;-75
2023/05/22 07:40:45;;;;;;;;;;;16.60;99.90;;;;;;5023558;28;19926;-75
2023/05/22 07:43:14;;;;;;;;;;;16.60;99.90;;;;;;5022963;28;19953;-76
2023/05/22 07:45:42;;;;;;;;;;;16.60;99.90;;;;;;5026933;28;20032;-76
2023/05/22 07:48:11;;;;;;;;;;;16.60;99.90;;;;;;5037671;28;20613;-76
2023/05/22 07:50:38;;;;;;;;;;;16.60;99.90;;;;;;5043505;28;19932;-76
2023/05/22 07:53:05;;;;;;;;;;;16.70;99.90;;;;;;5026770;28;19925;-75
2023/05/22 07:55:36;;;;;;;;;;;16.80;99.90;;;;;;5035986;28;20028;-75
2023/05/22 07:58:04;;;;;;;;;;;16.80;99.90;;;;;;5037203;28;19944;-75
2023/05/22 08:00:36;;;;;;;;;;;16.80;99.90;;;;;;5034622;28;19995;-76
2023/05/22 08:03:03;;;;;;;;;;;16.80;99.90;;;;;;5026901;28;19988;-75
2023/05/22 08:05:29;;;;;;;;;;;16.90;99.90;;;;;;5023313;28;19933;-76
2023/05/22 08:07:56;;;;;;;;;;;16.90;99.90;;;;;;5023396;28;19925;-76
2023/05/22 08:10:23;;;;;;;;;;;16.90;99.90;;;;;;5027762;28;19957;-75
2023/05/22 08:12:50;;;;;;;;;;;17.00;99.90;;;;;;5027000;28;19987;-76
2023/05/22 08:15:18;;;;;;;;;;;17.00;99.90;;;;;;5026333;28;19929;-75
2023/05/22 08:17:45;;;;;;;;;;;17.00;99.90;;;;;;5039764;28;19987;-75
2023/05/22 08:20:12;;;;;;;;;;;17.10;99.90;;;;;;5026792;28;19983;-76
2023/05/22 08:22:40;;;;;;;;;;;17.10;99.90;;;;;;5023793;28;19925;-76
2023/05/22 08:25:07;;;;;;;;;;;17.10;99.90;;;;;;5042713;28;19925;-75
2023/05/22 08:27:34;;;;;;;;;;;17.10;99.90;;;;;;5035901;28;20016;-76
2023/05/22 08:30:02;;;;;;;;;;;17.10;99.90;;;;;;5020152;28;19979;-75
2023/05/22 08:32:30;;;;;;;;;;;17.10;99.90;;;;;;5041973;28;20293;-75
2023/05/22 08:34:58;;;;;;;;;;;17.10;99.90;;;;;;5029169;28;19964;-76
2023/05/22 08:37:24;;;;;;;;;;;17.20;99.90;;;;;;5027504;28;19971;-75
2023/05/22 08:39:51;;;;;;;;;;;17.20;99.90;;;;;;5025096;28;19960;-75
2023/05/22 08:42:18;;;;;;;;;;;17.30;99.90;;;;;;5027585;28;19991;-75
2023/05/22 08:44:45;;;;;;;;;;;17.30;99.90;;;;;;5042253;28;19951;-75
2023/05/22 08:47:13;;;;;;;;;;;17.30;99.90;;;;;;5022778;28;19929;-76
2023/05/22 08:49:42;;;;;;;;;;;17.30;99.90;;;;;;5023943;28;19983;-75
2023/05/22 08:52:11;;;;;;;;;;;17.30;99.90;;;;;;5022546;28;20039;-75
2023/05/22 08:54:40;;;;;;;;;;;17.30;99.90;;;;;;5023894;28;20008;-75
2023/05/22 08:57:08;;;;;;;;;;;17.40;99.90;;;;;;5020950;28;19932;-76
2023/05/22 08:59:36;;;;;;;;;;;17.40;99.90;;;;;;5028434;28;19925;-75
2023/05/22 09:02:04;;;;;;;;;;;17.40;99.90;;;;;;5023753;28;19925;-75
2023/05/22 09:04:31;;;;;;;;;;;17.50;99.90;;;;;;5022403;28;19990;-75
2023/05/22 09:07:04;;;;;;;;;;;17.50;99.90;;;;;;5021716;28;19933;-75
2023/05/22 09:09:31;;;;;;;;;;;17.60;99.90;;;;;;5026019;28;19961;-75
2023/05/22 09:11:58;;;;;;;;;;;17.60;99.90;;;;;;5026977;28;20302;-75
2023/05/22 09:14:25;;;;;;;;;;;17.60;99.90;;;;;;5021109;28;20023;-76
2023/05/22 09:16:53;;;;;;;;;;;17.60;99.90;;;;;;5027833;28;20391;-75
2023/05/22 09:19:20;;;;;;;;;;;17.70;99.90;;;;;;5022373;28;19929;-75
2023/05/22 09:21:47;;;;;;;;;;;17.70;99.90;;;;;;5027075;28;19979;-75
2023/05/22 09:24:15;;;;;;;;;;;17.70;99.90;;;;;;5022538;28;19929;-75
2023/05/22 09:26:42;;;;;;;;;;;17.70;99.90;;;;;;5022809;28;20487;-76
2023/05/22 09:29:09;;;;;;;;;;;17.80;99.90;;;;;;5024573;28;20450;-75
2023/05/22 09:31:40;;;;;;;;;;;17.80;99.90;;;;;;5037414;28;19966;-75
2023/05/22 09:34:09;;;;;;;;;;;17.80;99.90;;;;;;5023509;28;19994;-75
2023/05/22 09:36:36;;;;;;;;;;;17.90;99.90;;;;;;5020215;28;19979;-75
2023/05/22 09:39:04;;;;;;;;;;;17.90;99.90;;;;;;5025834;28;19925;-76
2023/05/22 09:41:33;;;;;;;;;;;17.90;99.90;;;;;;5028001;28;19984;-76
2023/05/22 09:44:00;;;;;;;;;;;18.00;99.90;;;;;;5027402;28;19983;-75
2023/05/22 09:46:27;;;;;;;;;;;18.00;99.90;;;;;;5023246;28;19969;-76
2023/05/22 09:48:54;;;;;;;;;;;18.10;99.90;;;;;;5019040;28;20019;-75
2023/05/22 09:51:22;;;;;;;;;;;18.10;99.90;;;;;;5025238;28;19929;-75
2023/05/22 09:53:49;;;;;;;;;;;18.20;99.90;;;;;;5025754;28;19999;-75
2023/05/22 09:56:18;;;;;;;;;;;18.30;99.90;;;;;;5025426;28;19934;-76
2023/05/22 09:58:46;;;;;;;;;;;18.30;99.90;;;;;;5041428;28;19976;-75
2023/05/22 10:01:15;;;;;;;;;;;18.20;99.90;;;;;;5026107;28;20407;-75
2023/05/22 10:03:42;;;;;;;;;;;18.30;99.90;;;;;;5027552;28;20634;-76
2023/05/22 10:06:11;;;;;;;;;;;18.30;99.90;;;;;;5037609;28;19969;-76
2023/05/22 10:08:41;;;;;;;;;;;18.30;99.90;;;;;;5023637;28;19933;-75
2023/05/22 10:11:09;;;;;;;;;;;18.40;99.90;;;;;;5028483;28;20350;-76
2023/05/22 10:13:37;;;;;;;;;;;18.40;99.90;;;;;;5030764;28;19943;-75
2023/05/22 10:16:06;;;;;;;;;;;18.40;99.90;;;;;;5025721;28;20020;-75
2023/05/22 10:18:33;;;;;;;;;;;18.40;99.90;;;;;;5026959;28;20016;-75
2023/05/22 10:21:01;;;;;;;;;;;18.30;99.90;;;;;;5028480;28;19932;-75
2023/05/22 10:23:28;;;;;;;;;;;18.40;99.90;;;;;;5025784;28;19925;-76
2023/05/22 10:25:55;;;;;;;;;;;18.40;99.90;;;;;;5025702;28;19933;-75
2023/05/22 10:28:25;;;;;;;;;;;18.40;99.90;;;;;;5023870;28;19935;-76
2023/05/22 10:30:56;;;;;;;;;;;18.50;99.90;;;;;;5021842;28;19925;-75
2023/05/22 10:33:59;;;;;;;;;;;18.50;99.90;;;;;;5019930;28;20016;-75
2023/05/22 10:36:32;;;;;;;;;;;18.50;99.90;;;;;;5031119;28;19928;-75
2023/05/22 10:39:06;;;;;;;;;;;18.60;99.90;;;;;;5027692;28;19925;-75
2023/05/22 10:41:33;;;;;;;;;;;18.70;99.90;;;;;;5042103;28;20397;-75
2023/05/22 10:44:02;;;;;;;;;;;18.80;99.90;;;;;;5025233;28;19925;-76
2023/05/22 10:46:31;;;;;;;;;;;18.80;99.90;;;;;;5041685;28;19925;-75
2023/05/22 10:49:00;;;;;;;;;;;18.80;99.90;;;;;;5024077;28;19925;-76
2023/05/22 10:51:27;;;;;;;;;;;18.90;99.90;;;;;;5027126;28;19929;-74
2023/05/22 10:53:57;;;;;;;;;;;18.80;99.90;;;;;;5024167;28;19932;-76
2023/05/22 10:56:32;;;;;;;;;;;18.80;99.90;;;;;;5028649;28;19987;-76
2023/05/22 10:59:01;;;;;;;;;;;18.90;99.90;;;;;;5025506;28;19925;-76
2023/05/22 11:01:28;;;;;;;;;;;19.00;99.90;;;;;;5025809;28;19925;-75
2023/05/22 11:04:17;;;;;;;;;;;19.20;99.90;;;;;;5022921;28;19929;-76
2023/05/22 11:06:50;;;;;;;;;;;19.20;99.90;;;;;;5041524;28;19932;-75
2023/05/22 11:09:17;;;;;;;;;;;19.20;99.90;;;;;;5022151;28;19964;-76
2023/05/22 11:11:44;;;;;;;;;;;19.10;99.90;;;;;;5025767;28;19925;-75
2023/05/22 11:14:16;;;;;;;;;;;19.10;99.90;;;;;;5027134;28;19933;-76
2023/05/22 11:16:46;;;;;;;;;;;19.10;99.90;;;;;;5027617;28;20288;-75
2023/05/22 11:19:14;;;;;;;;;;;19.00;99.90;;;;;;5023103;28;19941;-75
2023/05/22 11:21:46;;;;;;;;;;;19.00;99.90;;;;;;5025800;28;19937;-76
2023/05/22 11:24:13;;;;;;;;;;;19.00;99.90;;;;;;5024793;28;19996;-76
2023/05/22 11:26:44;;;;;;;;;;;19.00;99.90;;;;;;5025014;28;20023;-76
2023/05/22 11:29:11;;;;;;;;;;;18.90;99.90;;;;;;5024041;28;20656;-76
2023/05/22 11:31:39;;;;;;;;;;;19.00;99.90;;;;;;5026851;28;19979;-76
2023/05/22 11:34:06;;;;;;;;;;;19.00;99.90;;;;;;5021118;28;19929;-75
2023/05/22 11:36:33;;;;;;;;;;;19.00;99.90;;;;;;5022757;28;20392;-75
2023/05/22 11:39:02;;;;;;;;;;;19.00;99.90;;;;;;5020460;28;19976;-76
2023/05/22 11:41:32;;;;;;;;;;;19.00;99.90;;;;;;5023879;28;20638;-75
2023/05/22 11:43:59;;;;;;;;;;;19.00;99.90;;;;;;5027063;28;19933;-76
2023/05/22 11:46:29;;;;;;;;;;;19.00;99.90;;;;;;5026244;28;19925;-78
2023/05/22 11:48:56;;;;;;;;;;;19.00;99.90;;;;;;5023771;28;19925;-75
2023/05/22 11:51:23;;;;;;;;;;;19.10;99.90;;;;;;5038035;28;19948;-76
2023/05/22 11:53:50;;;;;;;;;;;19.20;99.90;;;;;;5027547;28;20642;-75
2023/05/22 11:56:20;;;;;;;;;;;19.10;99.90;;;;;;5021258;28;20032;-76
2023/05/22 11:58:47;;;;;;;;;;;19.20;99.90;;;;;;5024252;28;19960;-75
2023/05/22 12:18:58;;;;;;;;;;;19.30;99.90;;;;;;5023525;28;19924;-76
2023/05/22 12:21:26;;;;;;;;;;;19.40;99.90;;;;;;5025127;28;19925;-75
2023/05/22 12:23:55;;;;;;;;;;;19.40;99.90;;;;;;5021023;28;20020;-75
2023/05/22 12:26:22;;;;;;;;;;;19.40;99.90;;;;;;5026091;28;19929;-74
2023/05/22 12:28:52;;;;;;;;;;;19.40;99.90;;;;;;5019078;28;19940;-76
2023/05/22 12:31:22;;;;;;;;;;;19.40;99.90;;;;;;5026462;28;19925;-76
2023/05/22 12:33:53;;;;;;;;;;;19.40;99.90;;;;;;5028101;28;20374;-76
2023/05/22 12:36:19;;;;;;;;;;;19.40;99.90;;;;;;5023643;28;20311;-76
2023/05/22 12:38:46;;;;;;;;;;;19.40;99.90;;;;;;5025106;28;19933;-76
2023/05/22 12:41:21;;;;;;;;;;;19.40;99.90;;;;;;5026418;28;19926;-76
2023/05/22 12:43:48;;;;;;;;;;;19.40;99.90;;;;;;5023310;28;19987;-75
2023/05/22 12:46:14;;;;;;;;;;;19.30;99.90;;;;;;5023927;28;20004;-76
2023/05/22 12:48:41;;;;;;;;;;;19.30;99.90;;;;;;5026683;28;20518;-77
2023/05/22 12:51:10;;;;;;;;;;;19.30;99.90;;;;;;5024175;28;20022;-77
2023/05/22 12:53:37;;;;;;;;;;;19.30;99.90;;;;;;5021827;28;20307;-76
2023/05/22 12:56:04;;;;;;;;;;;19.30;99.90;;;;;;5023538;28;20667;-75
2023/05/22 12:58:31;;;;;;;;;;;19.30;99.90;;;;;;5025203;28;19968;-75
2023/05/22 13:00:58;;;;;;;;;;;19.30;99.90;;;;;;5024228;28;19929;-76
2023/05/22 13:03:25;;;;;;;;;;;19.30;99.90;;;;;;5021053;28;19983;-75
2023/05/22 13:05:51;;;;;;;;;;;19.30;99.90;;;;;;5027257;28;19934;-75
2023/05/22 13:08:21;;;;;;;;;;;19.30;99.90;;;;;;5024371;28;19979;-76
2023/05/22 13:10:47;;;;;;;;;;;19.30;99.90;;;;;;5028452;28;20388;-76
2023/05/22 13:13:15;;;;;;;;;;;19.30;99.90;;;;;;5025046;28;19925;-75
2023/05/22 13:15:41;;;;;;;;;;;19.30;99.90;;;;;;5029346;28;19932;-75
2023/05/22 13:18:08;;;;;;;;;;;19.30;99.90;;;;;;5042451;28;19925;-75
2023/05/22 13:20:37;;;;;;;;;;;19.40;99.90;;;;;;5032592;28;20446;-76
2023/05/22 13:23:03;;;;;;;;;;;19.40;99.90;;;;;;5027386;28;19925;-76
2023/05/22 13:25:32;;;;;;;;;;;19.40;99.90;;;;;;5030642;28;19925;-76
2023/05/22 13:28:01;;;;;;;;;;;19.40;99.90;;;;;;5039045;28;19926;-76
2023/05/22 13:30:28;;;;;;;;;;;19.40;99.90;;;;;;5030774;28;20062;-76
2023/05/22 13:32:55;;;;;;;;;;;19.40;99.90;;;;;;5041465;28;19932;-75
2023/05/22 13:35:22;;;;;;;;;;;19.40;99.90;;;;;;5024499;28;20022;-75
2023/05/22 13:37:49;;;;;;;;;;;19.40;99.90;;;;;;5029453;28;19925;-76
2023/05/22 13:40:16;;;;;;;;;;;19.40;99.90;;;;;;5027066;28;20392;-76
2023/05/22 13:42:45;;;;;;;;;;;19.40;99.90;;;;;;5030590;28;19943;-75
2023/05/22 13:45:12;;;;;;;;;;;19.40;99.90;;;;;;5026489;28;20284;-75
2023/05/22 13:47:39;;;;;;;;;;;19.40;99.90;;;;;;5028775;28;19931;-77
2023/05/22 13:50:07;;;;;;;;;;;19.40;99.90;;;;;;5027748;28;20019;-77
2023/05/22 13:52:34;;;;;;;;;;;19.40;99.90;;;;;;5025459;28;19967;-76
2023/05/22 13:55:01;;;;;;;;;;;19.40;99.90;;;;;;5028000;28;20018;-75
2023/05/22 13:57:28;;;;;;;;;;;19.50;99.90;;;;;;5028072;28;20116;-76
2023/05/22 13:59:56;;;;;;;;;;;19.50;99.90;;;;;;5025400;28;19931;-75
2023/05/22 14:02:23;;;;;;;;;;;19.50;99.90;;;;;;5024759;28;19991;-75
2023/05/22 14:04:50;;;;;;;;;;;19.50;99.90;;;;;;5027726;28;19932;-75
2023/05/22 14:07:17;;;;;;;;;;;19.60;99.90;;;;;;5042850;28;20028;-76
2023/05/22 14:09:44;;;;;;;;;;;19.60;99.90;;;;;;5028059;28;19925;-75
2023/05/22 14:12:11;;;;;;;;;;;19.60;99.90;;;;;;5030511;28;20306;-75
2023/05/22 14:14:38;;;;;;;;;;;19.60;99.90;;;;;;5028804;28;19929;-76
2023/05/22 14:17:06;;;;;;;;;;;19.60;99.90;;;;;;5031948;28;19929;-74
2023/05/22 14:19:36;;;;;;;;;;;19.60;99.90;;;;;;5029635;28;20395;-75
2023/05/22 14:22:04;;;;;;;;;;;19.60;99.90;;;;;;5029960;28;20012;-75
2023/05/22 14:24:31;;;;;;;;;;;19.70;99.90;;;;;;5029071;28;19929;-74
2023/05/22 14:26:58;;;;;;;;;;;19.70;99.90;;;;;;5045995;28;20124;-75
2023/05/22 14:29:26;;;;;;;;;;;19.70;99.90;;;;;;5022703;28;19925;-75
2023/05/22 14:31:54;;;;;;;;;;;19.80;99.90;;;;;;5029617;28;20395;-75
2023/05/22 14:34:20;;;;;;;;;;;19.80;99.90;;;;;;5025625;28;19925;-75
2023/05/22 14:36:49;;;;;;;;;;;19.90;99.90;;;;;;5024002;28;19930;-77
2023/05/22 14:39:16;;;;;;;;;;;19.90;99.90;;;;;;5022358;28;19932;-76
2023/05/22 14:41:46;;;;;;;;;;;20.00;99.90;;;;;;5028300;28;19940;-76
2023/05/22 14:44:13;;;;;;;;;;;20.00;99.90;;;;;;5030851;28;19933;-75
2023/05/22 14:46:43;;;;;;;;;;;20.10;99.90;;;;;;5028253;28;20422;-76
2023/05/22 14:49:10;;;;;;;;;;;20.20;99.90;;;;;;5025784;28;19972;-75